sensor_id;sensor_type;location;lat;lon;timestamp;P1;durP1;ratioP1;P2;durP2;ratioP2
7575;SDS011;3829;50.798;4.358;2023-02-01T00:01:23;29.73;;;12.27;;
7575;SDS011;3829;50.798;4.358;2023-02-01T00:03:49;36.00;;;13.07;;
7575;SDS011;3829;50.798;4.358;2023-02-01T00:06:15;34.53;;;13.10;;
7575;SDS011;3829;50.798;4.358;2023-02-01T00:08:40;25.37;;;11.43;;
7575;SDS011;3829;50.798;4.358;2023-02-01T00:11:10;27.93;;;11.80;;
7575;SDS011;3829;50.798;4.358;2023-02-01T00:13:38;26.53;;;11.47;;
7575;SDS011;3829;50.798;4.358;2023-02-01T00:18:33;31.70;;;12.70;;
7575;SDS011;3829;50.798;4.358;2023-02-01T00:20:59;27.37;;;11.47;;
7575;SDS011;3829;50.798;4.358;2023-02-01T00:23:25;29.93;;;11.50;;
7575;SDS011;3829;50.798;4.358;2023-02-01T00:25:50;31.73;;;12.17;;
7575;SDS011;3829;50.798;4.358;2023-02-01T00:28:16;23.10;;;10.77;;
7575;SDS011;3829;50.798;4.358;2023-02-01T00:30:42;26.03;;;10.93;;
7575;SDS011;3829;50.798;4.358;2023-02-01T00:33:07;24.63;;;11.23;;
7575;SDS011;3829;50.798;4.358;2023-02-01T00:35:33;22.93;;;10.07;;
7575;SDS011;3829;50.798;4.358;2023-02-01T00:37:59;31.17;;;10.50;;
7575;SDS011;3829;50.798;4.358;2023-02-01T00:40:25;27.60;;;11.03;;
7575;SDS011;3829;50.798;4.358;2023-02-01T00:42:51;28.90;;;9.27;;
7575;SDS011;3829;50.798;4.358;2023-02-01T00:45:17;25.23;;;10.60;;
7575;SDS011;3829;50.798;4.358;2023-02-01T00:47:43;20.37;;;8.80;;
7575;SDS011;3829;50.798;4.358;2023-02-01T00:50:09;20.87;;;9.67;;
7575;SDS011;3829;50.798;4.358;2023-02-01T00:52:34;23.00;;;8.80;;
7575;SDS011;3829;50.798;4.358;2023-02-01T00:55:00;22.50;;;8.20;;
7575;SDS011;3829;50.798;4.358;2023-02-01T00:57:26;16.40;;;8.13;;
7575;SDS011;3829;50.798;4.358;2023-02-01T00:59:52;23.13;;;8.60;;
7575;SDS011;3829;50.798;4.358;2023-02-01T01:02:17;23.70;;;7.70;;
7575;SDS011;3829;50.798;4.358;2023-02-01T01:04:43;21.77;;;7.60;;
7575;SDS011;3829;50.798;4.358;2023-02-01T01:07:08;19.23;;;6.67;;
7575;SDS011;3829;50.798;4.358;2023-02-01T01:09:34;25.13;;;6.43;;
7575;SDS011;3829;50.798;4.358;2023-02-01T01:12:00;22.47;;;7.43;;
7575;SDS011;3829;50.798;4.358;2023-02-01T01:14:28;21.10;;;6.33;;
7575;SDS011;3829;50.798;4.358;2023-02-01T01:16:54;20.30;;;6.53;;
7575;SDS011;3829;50.798;4.358;2023-02-01T01:19:20;15.93;;;6.50;;
7575;SDS011;3829;50.798;4.358;2023-02-01T01:21:45;16.37;;;5.40;;
7575;SDS011;3829;50.798;4.358;2023-02-01T01:24:11;17.97;;;6.43;;
7575;SDS011;3829;50.798;4.358;2023-02-01T01:26:36;24.33;;;5.93;;
7575;SDS011;3829;50.798;4.358;2023-02-01T01:29:02;21.87;;;5.17;;
7575;SDS011;3829;50.798;4.358;2023-02-01T01:31:29;16.87;;;4.97;;
7575;SDS011;3829;50.798;4.358;2023-02-01T01:33:57;16.57;;;4.60;;
7575;SDS011;3829;50.798;4.358;2023-02-01T01:36:24;18.73;;;4.90;;
7575;SDS011;3829;50.798;4.358;2023-02-01T01:38:50;11.67;;;4.43;;
7575;SDS011;3829;50.798;4.358;2023-02-01T01:41:17;12.77;;;4.93;;
7575;SDS011;3829;50.798;4.358;2023-02-01T01:43:49;16.67;;;4.50;;
7575;SDS011;3829;50.798;4.358;2023-02-01T01:46:21;17.67;;;4.90;;
7575;SDS011;3829;50.798;4.358;2023-02-01T01:51:38;12.27;;;3.67;;
7575;SDS011;3829;50.798;4.358;2023-02-01T01:54:11;10.00;;;3.03;;
7575;SDS011;3829;50.798;4.358;2023-02-01T01:56:42;16.60;;;4.00;;
7575;SDS011;3829;50.798;4.358;2023-02-01T01:59:12;15.20;;;3.27;;
7575;SDS011;3829;50.798;4.358;2023-02-01T02:01:37;13.27;;;3.10;;
7575;SDS011;3829;50.798;4.358;2023-02-01T02:04:03;13.87;;;4.27;;
7575;SDS011;3829;50.798;4.358;2023-02-01T02:06:32;14.30;;;3.27;;
7575;SDS011;3829;50.798;4.358;2023-02-01T02:09:02;21.37;;;3.70;;
7575;SDS011;3829;50.798;4.358;2023-02-01T02:11:28;10.53;;;3.10;;
7575;SDS011;3829;50.798;4.358;2023-02-01T02:13:54;14.77;;;3.60;;
7575;SDS011;3829;50.798;4.358;2023-02-01T02:19:00;15.67;;;3.57;;
7575;SDS011;3829;50.798;4.358;2023-02-01T02:21:35;16.77;;;3.03;;
7575;SDS011;3829;50.798;4.358;2023-02-01T02:24:40;15.17;;;3.50;;
7575;SDS011;3829;50.798;4.358;2023-02-01T02:36:09;16.83;;;3.40;;
7575;SDS011;3829;50.798;4.358;2023-02-01T02:38:44;16.83;;;3.73;;
7575;SDS011;3829;50.798;4.358;2023-02-01T02:41:33;12.90;;;3.77;;
7575;SDS011;3829;50.798;4.358;2023-02-01T02:47:43;14.40;;;3.03;;
7575;SDS011;3829;50.798;4.358;2023-02-01T02:53:18;11.60;;;3.13;;
7575;SDS011;3829;50.798;4.358;2023-02-01T02:56:16;21.37;;;3.70;;
7575;SDS011;3829;50.798;4.358;2023-02-01T02:59:04;14.43;;;3.70;;
7575;SDS011;3829;50.798;4.358;2023-02-01T03:01:50;13.07;;;3.53;;
7575;SDS011;3829;50.798;4.358;2023-02-01T03:04:35;17.53;;;4.13;;
7575;SDS011;3829;50.798;4.358;2023-02-01T03:10:05;16.93;;;3.23;;
7575;SDS011;3829;50.798;4.358;2023-02-01T03:12:35;23.37;;;4.27;;
7575;SDS011;3829;50.798;4.358;2023-02-01T03:18:17;15.20;;;2.73;;
7575;SDS011;3829;50.798;4.358;2023-02-01T03:20:49;10.97;;;3.23;;
7575;SDS011;3829;50.798;4.358;2023-02-01T03:23:19;17.63;;;4.07;;
7575;SDS011;3829;50.798;4.358;2023-02-01T03:25:48;14.90;;;3.20;;
7575;SDS011;3829;50.798;4.358;2023-02-01T03:28:16;12.53;;;2.80;;
7575;SDS011;3829;50.798;4.358;2023-02-01T03:30:46;14.13;;;2.77;;
7575;SDS011;3829;50.798;4.358;2023-02-01T03:33:15;14.73;;;2.93;;
7575;SDS011;3829;50.798;4.358;2023-02-01T03:38:43;22.77;;;3.47;;
7575;SDS011;3829;50.798;4.358;2023-02-01T03:44:08;20.47;;;3.20;;
7575;SDS011;3829;50.798;4.358;2023-02-01T03:46:50;17.90;;;3.10;;
7575;SDS011;3829;50.798;4.358;2023-02-01T03:49:27;13.30;;;3.03;;
7575;SDS011;3829;50.798;4.358;2023-02-01T03:51:58;14.20;;;2.70;;
7575;SDS011;3829;50.798;4.358;2023-02-01T03:54:25;17.70;;;3.70;;
7575;SDS011;3829;50.798;4.358;2023-02-01T03:56:53;10.97;;;3.20;;
7575;SDS011;3829;50.798;4.358;2023-02-01T03:59:22;15.20;;;3.40;;
7575;SDS011;3829;50.798;4.358;2023-02-01T04:01:49;12.10;;;2.73;;
7575;SDS011;3829;50.798;4.358;2023-02-01T04:04:15;21.60;;;3.77;;
7575;SDS011;3829;50.798;4.358;2023-02-01T04:06:48;18.73;;;3.17;;
7575;SDS011;3829;50.798;4.358;2023-02-01T04:09:14;9.73;;;2.63;;
7575;SDS011;3829;50.798;4.358;2023-02-01T04:11:40;11.40;;;2.97;;
7575;SDS011;3829;50.798;4.358;2023-02-01T04:14:05;16.03;;;3.30;;
7575;SDS011;3829;50.798;4.358;2023-02-01T04:16:31;10.17;;;2.77;;
7575;SDS011;3829;50.798;4.358;2023-02-01T04:18:58;10.93;;;3.10;;
7575;SDS011;3829;50.798;4.358;2023-02-01T04:21:24;18.40;;;3.53;;
7575;SDS011;3829;50.798;4.358;2023-02-01T04:23:50;17.73;;;3.73;;
7575;SDS011;3829;50.798;4.358;2023-02-01T04:26:15;9.70;;;3.27;;
7575;SDS011;3829;50.798;4.358;2023-02-01T04:28:41;17.57;;;3.07;;
7575;SDS011;3829;50.798;4.358;2023-02-01T04:31:07;11.17;;;3.13;;
7575;SDS011;3829;50.798;4.358;2023-02-01T04:33:33;17.20;;;3.20;;
7575;SDS011;3829;50.798;4.358;2023-02-01T04:35:59;14.27;;;2.63;;
7575;SDS011;3829;50.798;4.358;2023-02-01T04:38:24;9.60;;;2.87;;
7575;SDS011;3829;50.798;4.358;2023-02-01T04:40:50;16.37;;;3.07;;
7575;SDS011;3829;50.798;4.358;2023-02-01T04:43:16;15.90;;;3.27;;
7575;SDS011;3829;50.798;4.358;2023-02-01T04:45:46;15.27;;;3.67;;
7575;SDS011;3829;50.798;4.358;2023-02-01T04:48:13;12.90;;;3.27;;
7575;SDS011;3829;50.798;4.358;2023-02-01T04:50:39;13.47;;;4.10;;
7575;SDS011;3829;50.798;4.358;2023-02-01T04:53:05;19.73;;;3.20;;
7575;SDS011;3829;50.798;4.358;2023-02-01T04:55:30;14.03;;;3.77;;
7575;SDS011;3829;50.798;4.358;2023-02-01T04:57:56;12.83;;;3.10;;
7575;SDS011;3829;50.798;4.358;2023-02-01T05:00:22;12.57;;;2.87;;
7575;SDS011;3829;50.798;4.358;2023-02-01T05:02:47;17.77;;;3.23;;
7575;SDS011;3829;50.798;4.358;2023-02-01T05:05:13;14.77;;;2.90;;
7575;SDS011;3829;50.798;4.358;2023-02-01T05:07:39;23.77;;;3.27;;
7575;SDS011;3829;50.798;4.358;2023-02-01T05:10:04;10.33;;;2.70;;
7575;SDS011;3829;50.798;4.358;2023-02-01T05:12:30;18.73;;;3.10;;
7575;SDS011;3829;50.798;4.358;2023-02-01T05:15:14;19.93;;;4.20;;
7575;SDS011;3829;50.798;4.358;2023-02-01T05:17:40;17.73;;;3.27;;
7575;SDS011;3829;50.798;4.358;2023-02-01T05:20:06;17.70;;;3.23;;
7575;SDS011;3829;50.798;4.358;2023-02-01T05:22:32;21.53;;;3.70;;
7575;SDS011;3829;50.798;4.358;2023-02-01T05:24:58;14.60;;;3.90;;
7575;SDS011;3829;50.798;4.358;2023-02-01T05:27:23;17.50;;;3.23;;
7575;SDS011;3829;50.798;4.358;2023-02-01T05:29:49;16.03;;;3.13;;
7575;SDS011;3829;50.798;4.358;2023-02-01T05:32:15;8.83;;;2.83;;
7575;SDS011;3829;50.798;4.358;2023-02-01T05:34:40;7.27;;;2.27;;
7575;SDS011;3829;50.798;4.358;2023-02-01T05:37:06;11.10;;;2.13;;
7575;SDS011;3829;50.798;4.358;2023-02-01T05:39:31;15.93;;;2.80;;
7575;SDS011;3829;50.798;4.358;2023-02-01T05:41:57;19.43;;;3.70;;
7575;SDS011;3829;50.798;4.358;2023-02-01T05:44:23;21.00;;;3.63;;
7575;SDS011;3829;50.798;4.358;2023-02-01T05:46:48;12.73;;;2.97;;
7575;SDS011;3829;50.798;4.358;2023-02-01T05:49:14;22.63;;;3.07;;
7575;SDS011;3829;50.798;4.358;2023-02-01T05:51:39;16.77;;;3.30;;
7575;SDS011;3829;50.798;4.358;2023-02-01T05:54:05;21.37;;;3.50;;
7575;SDS011;3829;50.798;4.358;2023-02-01T05:56:31;26.37;;;4.07;;
7575;SDS011;3829;50.798;4.358;2023-02-01T05:58:56;17.97;;;3.07;;
7575;SDS011;3829;50.798;4.358;2023-02-01T06:01:22;18.80;;;3.27;;
7575;SDS011;3829;50.798;4.358;2023-02-01T06:03:47;12.63;;;2.53;;
7575;SDS011;3829;50.798;4.358;2023-02-01T06:06:13;11.17;;;2.83;;
7575;SDS011;3829;50.798;4.358;2023-02-01T06:08:39;15.97;;;2.27;;
7575;SDS011;3829;50.798;4.358;2023-02-01T06:11:07;18.37;;;7.00;;
7575;SDS011;3829;50.798;4.358;2023-02-01T06:13:33;9.77;;;2.57;;
7575;SDS011;3829;50.798;4.358;2023-02-01T06:15:59;11.93;;;2.63;;
7575;SDS011;3829;50.798;4.358;2023-02-01T06:18:24;10.87;;;3.00;;
7575;SDS011;3829;50.798;4.358;2023-02-01T06:20:54;15.67;;;2.57;;
7575;SDS011;3829;50.798;4.358;2023-02-01T06:23:20;21.23;;;3.27;;
7575;SDS011;3829;50.798;4.358;2023-02-01T06:25:48;16.97;;;4.63;;
7575;SDS011;3829;50.798;4.358;2023-02-01T06:28:15;16.20;;;3.03;;
7575;SDS011;3829;50.798;4.358;2023-02-01T06:30:40;17.23;;;3.20;;
7575;SDS011;3829;50.798;4.358;2023-02-01T06:33:10;15.37;;;3.20;;
7575;SDS011;3829;50.798;4.358;2023-02-01T06:35:38;16.73;;;2.70;;
7575;SDS011;3829;50.798;4.358;2023-02-01T06:38:04;15.10;;;2.87;;
7575;SDS011;3829;50.798;4.358;2023-02-01T06:40:29;15.93;;;3.00;;
7575;SDS011;3829;50.798;4.358;2023-02-01T06:42:55;9.13;;;2.73;;
7575;SDS011;3829;50.798;4.358;2023-02-01T06:45:20;15.70;;;3.73;;
7575;SDS011;3829;50.798;4.358;2023-02-01T06:47:46;12.30;;;2.63;;
7575;SDS011;3829;50.798;4.358;2023-02-01T06:50:12;13.73;;;3.03;;
7575;SDS011;3829;50.798;4.358;2023-02-01T06:52:37;19.23;;;3.40;;
7575;SDS011;3829;50.798;4.358;2023-02-01T06:55:03;16.30;;;3.10;;
7575;SDS011;3829;50.798;4.358;2023-02-01T06:57:29;20.70;;;3.07;;
7575;SDS011;3829;50.798;4.358;2023-02-01T06:59:55;12.83;;;3.20;;
7575;SDS011;3829;50.798;4.358;2023-02-01T07:02:21;15.73;;;4.33;;
7575;SDS011;3829;50.798;4.358;2023-02-01T07:04:46;17.50;;;3.93;;
7575;SDS011;3829;50.798;4.358;2023-02-01T07:07:12;19.33;;;4.43;;
7575;SDS011;3829;50.798;4.358;2023-02-01T07:09:38;16.17;;;3.60;;
7575;SDS011;3829;50.798;4.358;2023-02-01T07:12:04;15.67;;;3.20;;
7575;SDS011;3829;50.798;4.358;2023-02-01T07:14:29;20.17;;;3.03;;
7575;SDS011;3829;50.798;4.358;2023-02-01T07:16:55;15.57;;;3.20;;
7575;SDS011;3829;50.798;4.358;2023-02-01T07:19:21;17.60;;;3.63;;
7575;SDS011;3829;50.798;4.358;2023-02-01T07:21:46;20.30;;;2.80;;
7575;SDS011;3829;50.798;4.358;2023-02-01T07:24:12;18.87;;;3.40;;
7575;SDS011;3829;50.798;4.358;2023-02-01T07:26:39;19.87;;;3.83;;
7575;SDS011;3829;50.798;4.358;2023-02-01T07:29:05;11.57;;;3.30;;
7575;SDS011;3829;50.798;4.358;2023-02-01T07:31:30;18.83;;;4.27;;
7575;SDS011;3829;50.798;4.358;2023-02-01T07:33:56;19.73;;;3.93;;
7575;SDS011;3829;50.798;4.358;2023-02-01T07:36:23;17.77;;;3.37;;
7575;SDS011;3829;50.798;4.358;2023-02-01T07:38:49;16.40;;;3.73;;
7575;SDS011;3829;50.798;4.358;2023-02-01T07:41:16;9.57;;;2.90;;
7575;SDS011;3829;50.798;4.358;2023-02-01T07:43:42;9.93;;;3.00;;
7575;SDS011;3829;50.798;4.358;2023-02-01T07:46:09;15.80;;;3.33;;
7575;SDS011;3829;50.798;4.358;2023-02-01T07:48:35;20.37;;;4.83;;
7575;SDS011;3829;50.798;4.358;2023-02-01T07:51:05;10.40;;;3.47;;
7575;SDS011;3829;50.798;4.358;2023-02-01T07:53:33;19.23;;;3.17;;
7575;SDS011;3829;50.798;4.358;2023-02-01T07:55:59;12.83;;;3.77;;
7575;SDS011;3829;50.798;4.358;2023-02-01T07:58:26;12.13;;;3.50;;
7575;SDS011;3829;50.798;4.358;2023-02-01T08:00:52;16.47;;;3.53;;
7575;SDS011;3829;50.798;4.358;2023-02-01T08:03:37;11.30;;;2.93;;
7575;SDS011;3829;50.798;4.358;2023-02-01T08:06:03;17.33;;;3.97;;
7575;SDS011;3829;50.798;4.358;2023-02-01T08:08:29;13.90;;;3.00;;
7575;SDS011;3829;50.798;4.358;2023-02-01T08:11:00;9.90;;;3.30;;
7575;SDS011;3829;50.798;4.358;2023-02-01T08:13:28;16.37;;;3.27;;
7575;SDS011;3829;50.798;4.358;2023-02-01T08:16:00;12.53;;;3.93;;
7575;SDS011;3829;50.798;4.358;2023-02-01T08:18:27;20.27;;;4.13;;
7575;SDS011;3829;50.798;4.358;2023-02-01T08:20:53;17.93;;;3.23;;
7575;SDS011;3829;50.798;4.358;2023-02-01T08:23:19;11.93;;;3.37;;
7575;SDS011;3829;50.798;4.358;2023-02-01T08:25:45;24.23;;;3.90;;
7575;SDS011;3829;50.798;4.358;2023-02-01T08:28:12;21.73;;;3.43;;
7575;SDS011;3829;50.798;4.358;2023-02-01T08:30:38;16.27;;;3.87;;
7575;SDS011;3829;50.798;4.358;2023-02-01T08:33:05;15.87;;;3.03;;
7575;SDS011;3829;50.798;4.358;2023-02-01T08:35:32;16.30;;;3.40;;
7575;SDS011;3829;50.798;4.358;2023-02-01T08:37:59;26.00;;;2.90;;
7575;SDS011;3829;50.798;4.358;2023-02-01T08:40:25;25.03;;;4.27;;
7575;SDS011;3829;50.798;4.358;2023-02-01T08:42:51;19.17;;;3.83;;
7575;SDS011;3829;50.798;4.358;2023-02-01T08:45:17;13.70;;;3.03;;
7575;SDS011;3829;50.798;4.358;2023-02-01T08:47:45;23.77;;;4.33;;
7575;SDS011;3829;50.798;4.358;2023-02-01T08:50:12;18.77;;;3.50;;
7575;SDS011;3829;50.798;4.358;2023-02-01T08:52:39;22.43;;;3.80;;
7575;SDS011;3829;50.798;4.358;2023-02-01T08:55:05;17.43;;;3.30;;
7575;SDS011;3829;50.798;4.358;2023-02-01T08:57:32;17.37;;;4.77;;
7575;SDS011;3829;50.798;4.358;2023-02-01T08:59:58;13.50;;;3.43;;
7575;SDS011;3829;50.798;4.358;2023-02-01T09:02:25;14.30;;;3.27;;
7575;SDS011;3829;50.798;4.358;2023-02-01T09:04:51;14.53;;;3.43;;
7575;SDS011;3829;50.798;4.358;2023-02-01T09:07:17;23.20;;;4.00;;
7575;SDS011;3829;50.798;4.358;2023-02-01T09:09:43;15.43;;;3.30;;
7575;SDS011;3829;50.798;4.358;2023-02-01T09:12:10;20.87;;;3.87;;
7575;SDS011;3829;50.798;4.358;2023-02-01T09:14:36;15.00;;;3.30;;
7575;SDS011;3829;50.798;4.358;2023-02-01T09:17:02;19.67;;;3.07;;
7575;SDS011;3829;50.798;4.358;2023-02-01T09:19:28;9.03;;;3.57;;
7575;SDS011;3829;50.798;4.358;2023-02-01T09:21:53;17.80;;;3.97;;
7575;SDS011;3829;50.798;4.358;2023-02-01T09:24:19;12.93;;;3.30;;
7575;SDS011;3829;50.798;4.358;2023-02-01T09:26:45;14.40;;;3.90;;
7575;SDS011;3829;50.798;4.358;2023-02-01T09:29:10;19.50;;;4.13;;
7575;SDS011;3829;50.798;4.358;2023-02-01T09:31:36;22.73;;;3.93;;
7575;SDS011;3829;50.798;4.358;2023-02-01T09:34:03;18.60;;;3.53;;
7575;SDS011;3829;50.798;4.358;2023-02-01T09:36:29;17.90;;;4.13;;
7575;SDS011;3829;50.798;4.358;2023-02-01T09:38:56;22.50;;;3.47;;
7575;SDS011;3829;50.798;4.358;2023-02-01T09:44:18;15.33;;;3.47;;
7575;SDS011;3829;50.798;4.358;2023-02-01T09:46:54;10.33;;;3.20;;
7575;SDS011;3829;50.798;4.358;2023-02-01T09:49:35;12.90;;;3.67;;
7575;SDS011;3829;50.798;4.358;2023-02-01T09:52:10;25.57;;;4.33;;
7575;SDS011;3829;50.798;4.358;2023-02-01T09:57:19;20.40;;;3.67;;
7575;SDS011;3829;50.798;4.358;2023-02-01T09:59:57;16.00;;;3.33;;
7575;SDS011;3829;50.798;4.358;2023-02-01T10:02:29;15.17;;;3.33;;
7575;SDS011;3829;50.798;4.358;2023-02-01T10:04:58;16.83;;;3.73;;
7575;SDS011;3829;50.798;4.358;2023-02-01T10:07:29;15.47;;;3.30;;
7575;SDS011;3829;50.798;4.358;2023-02-01T10:27:51;11.70;;;3.10;;
7575;SDS011;3829;50.798;4.358;2023-02-01T10:30:19;15.43;;;3.77;;
7575;SDS011;3829;50.798;4.358;2023-02-01T10:32:49;23.30;;;3.73;;
7575;SDS011;3829;50.798;4.358;2023-02-01T10:35:33;12.43;;;3.00;;
7575;SDS011;3829;50.798;4.358;2023-02-01T10:38:01;7.57;;;2.33;;
7575;SDS011;3829;50.798;4.358;2023-02-01T10:40:28;14.10;;;3.30;;
7575;SDS011;3829;50.798;4.358;2023-02-01T10:42:56;10.50;;;2.63;;
7575;SDS011;3829;50.798;4.358;2023-02-01T10:45:28;11.63;;;2.40;;
7575;SDS011;3829;50.798;4.358;2023-02-01T10:47:55;17.63;;;3.07;;
7575;SDS011;3829;50.798;4.358;2023-02-01T10:50:32;19.50;;;2.50;;
7575;SDS011;3829;50.798;4.358;2023-02-01T10:53:05;9.10;;;2.47;;
7575;SDS011;3829;50.798;4.358;2023-02-01T11:00:53;13.43;;;2.70;;
7575;SDS011;3829;50.798;4.358;2023-02-01T11:06:10;14.30;;;2.00;;
7575;SDS011;3829;50.798;4.358;2023-02-01T11:08:59;16.57;;;2.20;;
7575;SDS011;3829;50.798;4.358;2023-02-01T11:17:03;20.70;;;2.40;;
7575;SDS011;3829;50.798;4.358;2023-02-01T11:19:46;14.60;;;2.87;;
7575;SDS011;3829;50.798;4.358;2023-02-01T11:22:32;15.77;;;2.70;;
7575;SDS011;3829;50.798;4.358;2023-02-01T11:24:58;13.03;;;2.30;;
7575;SDS011;3829;50.798;4.358;2023-02-01T11:27:26;21.60;;;2.80;;
7575;SDS011;3829;50.798;4.358;2023-02-01T11:29:53;10.50;;;1.90;;
7575;SDS011;3829;50.798;4.358;2023-02-01T11:32:24;7.67;;;2.23;;
7575;SDS011;3829;50.798;4.358;2023-02-01T11:34:54;14.53;;;2.93;;
7575;SDS011;3829;50.798;4.358;2023-02-01T11:37:57;12.00;;;2.20;;
7575;SDS011;3829;50.798;4.358;2023-02-01T11:40:37;9.13;;;2.00;;
7575;SDS011;3829;50.798;4.358;2023-02-01T11:45:58;10.40;;;2.17;;
7575;SDS011;3829;50.798;4.358;2023-02-01T11:48:25;7.50;;;1.70;;
7575;SDS011;3829;50.798;4.358;2023-02-01T11:55:52;8.73;;;1.97;;
7575;SDS011;3829;50.798;4.358;2023-02-01T11:58:24;15.37;;;2.17;;
7575;SDS011;3829;50.798;4.358;2023-02-01T12:00:59;9.53;;;1.87;;
7575;SDS011;3829;50.798;4.358;2023-02-01T12:14:47;10.57;;;1.93;;
7575;SDS011;3829;50.798;4.358;2023-02-01T12:29:03;9.77;;;1.97;;
7575;SDS011;3829;50.798;4.358;2023-02-01T12:40:02;4.80;;;1.67;;
7575;SDS011;3829;50.798;4.358;2023-02-01T12:42:33;10.43;;;1.83;;
7575;SDS011;3829;50.798;4.358;2023-02-01T12:45:19;6.37;;;1.80;;
7575;SDS011;3829;50.798;4.358;2023-02-01T12:47:57;6.33;;;1.60;;
7575;SDS011;3829;50.798;4.358;2023-02-01T12:50:44;6.90;;;1.57;;
7575;SDS011;3829;50.798;4.358;2023-02-01T12:53:15;5.40;;;1.77;;
7575;SDS011;3829;50.798;4.358;2023-02-01T12:55:53;7.50;;;1.60;;
7575;SDS011;3829;50.798;4.358;2023-02-01T12:58:27;13.00;;;1.90;;
7575;SDS011;3829;50.798;4.358;2023-02-01T13:01:00;5.53;;;1.60;;
7575;SDS011;3829;50.798;4.358;2023-02-01T13:06:10;8.07;;;1.47;;
7575;SDS011;3829;50.798;4.358;2023-02-01T13:08:47;11.30;;;2.50;;
7575;SDS011;3829;50.798;4.358;2023-02-01T13:11:31;8.07;;;1.07;;
7575;SDS011;3829;50.798;4.358;2023-02-01T13:14:07;6.27;;;1.20;;
7575;SDS011;3829;50.798;4.358;2023-02-01T13:16:46;5.47;;;1.50;;
7575;SDS011;3829;50.798;4.358;2023-02-01T13:19:20;9.27;;;1.50;;
7575;SDS011;3829;50.798;4.358;2023-02-01T13:21:46;10.03;;;1.60;;
7575;SDS011;3829;50.798;4.358;2023-02-01T13:24:31;6.70;;;1.60;;
7575;SDS011;3829;50.798;4.358;2023-02-01T13:27:16;7.53;;;1.37;;
7575;SDS011;3829;50.798;4.358;2023-02-01T13:29:50;12.47;;;1.60;;
7575;SDS011;3829;50.798;4.358;2023-02-01T13:41:11;6.67;;;1.50;;
7575;SDS011;3829;50.798;4.358;2023-02-01T13:43:38;14.13;;;1.93;;
7575;SDS011;3829;50.798;4.358;2023-02-01T13:46:07;7.37;;;1.93;;
7575;SDS011;3829;50.798;4.358;2023-02-01T13:48:38;4.20;;;1.70;;
7575;SDS011;3829;50.798;4.358;2023-02-01T13:51:28;9.23;;;2.03;;
7575;SDS011;3829;50.798;4.358;2023-02-01T13:54:00;2.53;;;1.17;;
7575;SDS011;3829;50.798;4.358;2023-02-01T13:56:26;9.23;;;1.60;;
7575;SDS011;3829;50.798;4.358;2023-02-01T13:58:52;5.80;;;1.57;;
7575;SDS011;3829;50.798;4.358;2023-02-01T14:03:59;6.97;;;1.50;;
7575;SDS011;3829;50.798;4.358;2023-02-01T14:11:37;3.70;;;1.10;;
7575;SDS011;3829;50.798;4.358;2023-02-01T14:14:36;8.13;;;2.00;;
7575;SDS011;3829;50.798;4.358;2023-02-01T14:21:49;9.13;;;1.93;;
7575;SDS011;3829;50.798;4.358;2023-02-01T14:24:32;10.73;;;1.70;;
7575;SDS011;3829;50.798;4.358;2023-02-01T14:29:38;5.57;;;1.80;;
7575;SDS011;3829;50.798;4.358;2023-02-01T14:34:53;8.00;;;1.50;;
7575;SDS011;3829;50.798;4.358;2023-02-01T14:40:00;9.73;;;2.20;;
7575;SDS011;3829;50.798;4.358;2023-02-01T14:47:52;12.27;;;2.20;;
7575;SDS011;3829;50.798;4.358;2023-02-01T14:50:39;9.47;;;1.90;;
7575;SDS011;3829;50.798;4.358;2023-02-01T14:58:32;13.17;;;1.87;;
7575;SDS011;3829;50.798;4.358;2023-02-01T15:06:27;13.90;;;2.57;;
7575;SDS011;3829;50.798;4.358;2023-02-01T15:11:29;8.87;;;1.67;;
7575;SDS011;3829;50.798;4.358;2023-02-01T15:14:17;16.27;;;2.20;;
7575;SDS011;3829;50.798;4.358;2023-02-01T15:16:43;12.40;;;2.40;;
7575;SDS011;3829;50.798;4.358;2023-02-01T15:19:14;11.37;;;2.03;;
7575;SDS011;3829;50.798;4.358;2023-02-01T15:21:44;12.57;;;2.57;;
7575;SDS011;3829;50.798;4.358;2023-02-01T15:24:24;7.67;;;1.87;;
7575;SDS011;3829;50.798;4.358;2023-02-01T15:26:52;9.17;;;1.90;;
7575;SDS011;3829;50.798;4.358;2023-02-01T15:29:19;14.00;;;2.40;;
7575;SDS011;3829;50.798;4.358;2023-02-01T15:31:50;6.93;;;1.80;;
7575;SDS011;3829;50.798;4.358;2023-02-01T15:34:17;8.27;;;2.47;;
7575;SDS011;3829;50.798;4.358;2023-02-01T15:36:43;9.77;;;2.10;;
7575;SDS011;3829;50.798;4.358;2023-02-01T15:39:23;10.70;;;2.10;;
7575;SDS011;3829;50.798;4.358;2023-02-01T15:41:57;9.67;;;2.20;;
7575;SDS011;3829;50.798;4.358;2023-02-01T15:46:56;11.33;;;3.43;;
7575;SDS011;3829;50.798;4.358;2023-02-01T15:49:30;6.40;;;2.20;;
7575;SDS011;3829;50.798;4.358;2023-02-01T15:52:08;11.60;;;2.47;;
7575;SDS011;3829;50.798;4.358;2023-02-01T15:54:49;9.27;;;2.23;;
7575;SDS011;3829;50.798;4.358;2023-02-01T15:57:20;10.70;;;2.30;;
7575;SDS011;3829;50.798;4.358;2023-02-01T15:59:59;12.63;;;2.50;;
7575;SDS011;3829;50.798;4.358;2023-02-01T16:02:35;12.37;;;2.90;;
7575;SDS011;3829;50.798;4.358;2023-02-01T16:05:27;11.03;;;2.53;;
7575;SDS011;3829;50.798;4.358;2023-02-01T16:08:04;5.80;;;1.93;;
7575;SDS011;3829;50.798;4.358;2023-02-01T16:10:38;8.60;;;2.67;;
7575;SDS011;3829;50.798;4.358;2023-02-01T16:13:08;6.03;;;1.77;;
7575;SDS011;3829;50.798;4.358;2023-02-01T16:15:35;10.23;;;1.90;;
7575;SDS011;3829;50.798;4.358;2023-02-01T16:18:00;12.33;;;2.07;;
7575;SDS011;3829;50.798;4.358;2023-02-01T16:20:26;13.17;;;2.23;;
7575;SDS011;3829;50.798;4.358;2023-02-01T16:22:52;13.03;;;1.93;;
7575;SDS011;3829;50.798;4.358;2023-02-01T16:25:17;17.33;;;2.90;;
7575;SDS011;3829;50.798;4.358;2023-02-01T16:27:43;12.00;;;2.80;;
7575;SDS011;3829;50.798;4.358;2023-02-01T16:30:09;13.93;;;2.47;;
7575;SDS011;3829;50.798;4.358;2023-02-01T16:32:35;11.53;;;2.23;;
7575;SDS011;3829;50.798;4.358;2023-02-01T16:35:11;16.40;;;2.83;;
7575;SDS011;3829;50.798;4.358;2023-02-01T16:37:44;10.87;;;2.20;;
7575;SDS011;3829;50.798;4.358;2023-02-01T16:40:13;12.93;;;2.40;;
7575;SDS011;3829;50.798;4.358;2023-02-01T16:42:40;10.70;;;2.47;;
7575;SDS011;3829;50.798;4.358;2023-02-01T16:45:06;17.90;;;2.97;;
7575;SDS011;3829;50.798;4.358;2023-02-01T16:47:33;10.00;;;2.20;;
7575;SDS011;3829;50.798;4.358;2023-02-01T16:50:01;12.90;;;2.60;;
7575;SDS011;3829;50.798;4.358;2023-02-01T16:52:26;17.30;;;2.77;;
7575;SDS011;3829;50.798;4.358;2023-02-01T16:54:52;13.17;;;2.70;;
7575;SDS011;3829;50.798;4.358;2023-02-01T16:57:18;10.37;;;2.40;;
7575;SDS011;3829;50.798;4.358;2023-02-01T16:59:47;13.93;;;2.63;;
7575;SDS011;3829;50.798;4.358;2023-02-01T17:02:14;10.30;;;2.37;;
7575;SDS011;3829;50.798;4.358;2023-02-01T17:04:47;14.97;;;3.13;;
7575;SDS011;3829;50.798;4.358;2023-02-01T17:07:17;15.47;;;3.17;;
7575;SDS011;3829;50.798;4.358;2023-02-01T17:09:44;18.00;;;2.53;;
7575;SDS011;3829;50.798;4.358;2023-02-01T17:12:26;17.83;;;2.47;;
7575;SDS011;3829;50.798;4.358;2023-02-01T17:14:54;9.77;;;2.43;;
7575;SDS011;3829;50.798;4.358;2023-02-01T17:17:21;10.90;;;2.37;;
7575;SDS011;3829;50.798;4.358;2023-02-01T17:19:49;14.27;;;2.60;;
7575;SDS011;3829;50.798;4.358;2023-02-01T17:22:19;15.87;;;2.77;;
7575;SDS011;3829;50.798;4.358;2023-02-01T17:24:45;16.30;;;3.17;;
7575;SDS011;3829;50.798;4.358;2023-02-01T17:27:12;12.63;;;3.10;;
7575;SDS011;3829;50.798;4.358;2023-02-01T17:29:37;11.27;;;2.23;;
7575;SDS011;3829;50.798;4.358;2023-02-01T17:32:03;12.93;;;2.77;;
7575;SDS011;3829;50.798;4.358;2023-02-01T17:34:29;13.97;;;3.43;;
7575;SDS011;3829;50.798;4.358;2023-02-01T17:36:55;14.63;;;2.50;;
7575;SDS011;3829;50.798;4.358;2023-02-01T17:39:21;10.33;;;2.57;;
7575;SDS011;3829;50.798;4.358;2023-02-01T17:42:05;13.60;;;2.60;;
7575;SDS011;3829;50.798;4.358;2023-02-01T17:44:34;11.67;;;3.47;;
7575;SDS011;3829;50.798;4.358;2023-02-01T17:46:59;15.40;;;3.47;;
7575;SDS011;3829;50.798;4.358;2023-02-01T17:49:25;13.77;;;2.60;;
7575;SDS011;3829;50.798;4.358;2023-02-01T17:51:55;18.43;;;3.70;;
7575;SDS011;3829;50.798;4.358;2023-02-01T17:54:21;14.93;;;3.07;;
7575;SDS011;3829;50.798;4.358;2023-02-01T17:56:47;13.53;;;3.00;;
7575;SDS011;3829;50.798;4.358;2023-02-01T17:59:13;25.30;;;3.80;;
7575;SDS011;3829;50.798;4.358;2023-02-01T18:01:39;17.40;;;2.90;;